Time;durP1;ratioP1;P1;durP2;ratioP2;P2;SDS_P1;SDS_P2;PMS_P1;PMS_P2;Temp;Humidity;BMP_temperature;BMP_pressure;BME280_temperature;BME280_humidity;BME280_pressure;Samples;Min_cycle;Max_cycle;Signal;HPM_P1;HPM_P2
2023/05/06 00:01:41;;;;;;;0.70;0.70;;;;;;;;;;4983718;28;20042;-83
2023/05/06 00:04:09;;;;;;;0.60;0.60;;;;;;;;;;4989048;28;20481;-83
2023/05/06 00:06:36;;;;;;;1.27;0.50;;;;;;;;;;4988022;28;20050;-83
2023/05/06 00:09:04;;;;;;;0.60;0.60;;;;;;;;;;4990328;28;20088;-83
2023/05/06 00:11:31;;;;;;;0.50;0.50;;;;;;;;;;4991640;28;20089;-82
2023/05/06 00:13:59;;;;;;;0.43;0.40;;;;;;;;;;4992224;28;20054;-82
2023/05/06 00:16:26;;;;;;;0.50;0.50;;;;;;;;;;4974294;28;20074;-82
2023/05/06 00:18:54;;;;;;;0.55;0.47;;;;;;;;;;4994714;28;20073;-82
2023/05/06 00:21:22;;;;;;;0.73;0.60;;;;;;;;;;4991959;28;20124;-82
2023/05/06 00:23:49;;;;;;;0.70;0.68;;;;;;;;;;4976111;28;20074;-82
2023/05/06 00:26:16;;;;;;;0.50;0.50;;;;;;;;;;4969875;28;20042;-83
2023/05/06 00:28:44;;;;;;;0.73;0.70;;;;;;;;;;4988080;28;20057;-83
2023/05/06 00:31:11;;;;;;;0.70;0.70;;;;;;;;;;4987105;28;20097;-82
2023/05/06 00:33:40;;;;;;;0.65;0.65;;;;;;;;;;4987223;28;20584;-82
2023/05/06 00:36:07;;;;;;;0.40;0.40;;;;;;;;;;4969721;28;20070;-82
2023/05/06 00:38:35;;;;;;;0.68;0.68;;;;;;;;;;4989932;28;20066;-81
2023/05/06 00:41:02;;;;;;;1.73;0.80;;;;;;;;;;4991060;28;20077;-82
2023/05/06 00:43:30;;;;;;;0.68;0.60;;;;;;;;;;4976257;28;20436;-82
2023/05/06 00:45:57;;;;;;;0.60;0.60;;;;;;;;;;4990051;28;20052;-82
2023/05/06 00:48:26;;;;;;;0.50;0.50;;;;;;;;;;4989174;28;20046;-83
2023/05/06 00:50:55;;;;;;;1.40;0.80;;;;;;;;;;4969470;28;20137;-83
2023/05/06 00:53:23;;;;;;;0.90;0.80;;;;;;;;;;4986210;28;20054;-83
2023/05/06 00:55:50;;;;;;;0.93;0.80;;;;;;;;;;4989081;28;20081;-83
2023/05/06 00:58:19;;;;;;;0.90;0.77;;;;;;;;;;4990586;28;20093;-82
2023/05/06 01:00:47;;;;;;;0.80;0.80;;;;;;;;;;4967312;28;20046;-83
2023/05/06 01:03:16;;;;;;;0.70;0.70;;;;;;;;;;4970428;28;20039;-82
2023/05/06 01:05:59;;;;;;;0.93;0.90;;;;;;;;;;4970824;28;20125;-82
2023/05/06 01:08:34;;;;;;;1.13;0.93;;;;;;;;;;4966659;28;20050;-82
2023/05/06 01:11:05;;;;;;;0.70;0.70;;;;;;;;;;4969271;28;20058;-82
2023/05/06 01:13:56;;;;;;;2.55;1.83;;;;;;;;;;4969377;28;20472;-82
2023/05/06 01:16:25;;;;;;;0.90;0.90;;;;;;;;;;4965375;28;20046;-82
2023/05/06 01:18:54;;;;;;;0.65;0.65;;;;;;;;;;4988741;28;20046;-81
2023/05/06 01:21:23;;;;;;;0.90;0.90;;;;;;;;;;4986520;28;20488;-82
2023/05/06 01:23:54;;;;;;;0.85;0.68;;;;;;;;;;4965411;28;20042;-82
2023/05/06 01:26:23;;;;;;;0.80;0.80;;;;;;;;;;4987173;28;20050;-82
2023/05/06 01:28:50;;;;;;;0.60;0.60;;;;;;;;;;4983292;28;20046;-82
2023/05/06 01:31:25;;;;;;;0.60;0.60;;;;;;;;;;4986482;28;20507;-82
2023/05/06 01:34:05;;;;;;;1.70;0.80;;;;;;;;;;4969882;28;20054;-82
2023/05/06 01:40:24;;;;;;;0.70;0.70;;;;;;;;;;5003242;28;20115;-85
2023/05/06 01:43:29;;;;;;;0.80;0.80;;;;;;;;;;5031112;28;20121;-86
2023/05/06 01:49:16;;;;;;;0.75;0.75;;;;;;;;;;5002494;28;20057;-86
2023/05/06 01:51:53;;;;;;;1.17;1.08;;;;;;;;;;4992974;28;20057;-85
2023/05/06 01:54:32;;;;;;;0.95;0.95;;;;;;;;;;4996478;28;20496;-87
2023/05/06 01:57:31;;;;;;;1.20;1.10;;;;;;;;;;4991983;28;20042;-86
2023/05/06 02:04:32;;;;;;;1.25;1.17;;;;;;;;;;5011408;28;20754;-86
2023/05/06 02:07:07;;;;;;;1.30;1.30;;;;;;;;;;4990489;28;20077;-86
2023/05/06 02:10:11;;;;;;;1.35;1.25;;;;;;;;;;4992400;28;20053;-85
2023/05/06 02:12:47;;;;;;;1.40;1.30;;;;;;;;;;4990718;28;20048;-85
2023/05/06 02:15:18;;;;;;;1.63;1.30;;;;;;;;;;4991768;28;20064;-85
2023/05/06 02:21:54;;;;;;;1.30;1.20;;;;;;;;;;5002504;28;20522;-86
2023/05/06 02:32:11;;;;;;;1.20;1.20;;;;;;;;;;5006462;28;20550;-84
2023/05/06 02:35:38;;;;;;;1.23;1.15;;;;;;;;;;4931519;29;20417;-86
2023/05/06 02:38:14;;;;;;;1.75;1.65;;;;;;;;;;4930643;29;20043;-86
2023/05/06 02:50:55;;;;;;;1.40;1.40;;;;;;;;;;5016257;28;20371;-85
2023/05/06 02:53:22;;;;;;;1.20;1.20;;;;;;;;;;5024750;28;20393;-85
2023/05/06 02:55:50;;;;;;;1.10;1.10;;;;;;;;;;5016868;28;20484;-84
2023/05/06 02:58:17;;;;;;;1.15;1.15;;;;;;;;;;5004161;28;20050;-85
2023/05/06 03:00:45;;;;;;;1.13;1.13;;;;;;;;;;4978919;28;20046;-84
2023/05/06 03:03:12;;;;;;;1.73;1.63;;;;;;;;;;4986699;28;20042;-85
2023/05/06 03:05:40;;;;;;;1.27;1.27;;;;;;;;;;5002941;28;20100;-85
2023/05/06 03:08:07;;;;;;;1.60;1.60;;;;;;;;;;4986704;28;20046;-86
2023/05/06 03:10:35;;;;;;;1.70;1.60;;;;;;;;;;4983181;28;20073;-85
2023/05/06 03:13:03;;;;;;;1.40;1.40;;;;;;;;;;4987963;28;20575;-85
2023/05/06 03:15:31;;;;;;;1.40;1.40;;;;;;;;;;4976219;28;20393;-85
2023/05/06 03:17:58;;;;;;;1.60;1.52;;;;;;;;;;5007102;28;20112;-85
2023/05/06 03:20:27;;;;;;;1.80;1.73;;;;;;;;;;4980844;28;20069;-84
2023/05/06 03:22:56;;;;;;;1.80;1.70;;;;;;;;;;4988466;28;20130;-84
2023/05/06 03:25:24;;;;;;;1.58;1.55;;;;;;;;;;4987648;28;20262;-85
2023/05/06 03:27:52;;;;;;;1.35;1.35;;;;;;;;;;4986044;28;20030;-85
2023/05/06 03:30:22;;;;;;;1.65;1.55;;;;;;;;;;5005023;28;20321;-84
2023/05/06 03:32:55;;;;;;;1.43;1.43;;;;;;;;;;4988983;28;20042;-85
2023/05/06 03:35:28;;;;;;;1.70;1.60;;;;;;;;;;4987901;28;20335;-85
2023/05/06 03:37:59;;;;;;;2.03;1.92;;;;;;;;;;4977260;28;20049;-85
2023/05/06 03:40:34;;;;;;;2.10;2.00;;;;;;;;;;4967800;28;20079;-85
2023/05/06 03:43:01;;;;;;;2.10;2.00;;;;;;;;;;4976447;28;20039;-84
2023/05/06 03:45:29;;;;;;;2.10;2.00;;;;;;;;;;4985292;28;20136;-84
2023/05/06 03:47:59;;;;;;;1.88;1.77;;;;;;;;;;4993290;28;20060;-84
2023/05/06 03:50:29;;;;;;;2.00;1.90;;;;;;;;;;4992780;28;20050;-84
2023/05/06 03:52:57;;;;;;;2.08;1.98;;;;;;;;;;4990508;28;20042;-84
2023/05/06 03:59:01;;;;;;;1.90;1.80;;;;;;;;;;4968170;28;20057;-83
2023/05/06 04:01:29;;;;;;;1.70;1.60;;;;;;;;;;4993828;28;20516;-84
2023/05/06 04:03:57;;;;;;;2.10;2.00;;;;;;;;;;4993231;28;20133;-84
2023/05/06 04:06:25;;;;;;;2.40;2.30;;;;;;;;;;4992090;28;20077;-84
2023/05/06 04:08:53;;;;;;;1.70;1.60;;;;;;;;;;4995495;28;20586;-85
2023/05/06 04:14:28;;;;;;;1.38;1.38;;;;;;;;;;5011515;28;20137;-88
2023/05/06 04:16:56;;;;;;;1.42;1.33;;;;;;;;;;5011077;28;20042;-86
2023/05/06 04:19:23;;;;;;;2.15;2.05;;;;;;;;;;4987796;28;20314;-86
2023/05/06 04:21:51;;;;;;;1.80;1.70;;;;;;;;;;5001402;28;20054;-85
2023/05/06 04:24:20;;;;;;;1.98;1.88;;;;;;;;;;5005921;28;20056;-86
2023/05/06 04:26:47;;;;;;;1.60;1.60;;;;;;;;;;5005858;28;20076;-87
2023/05/06 04:29:18;;;;;;;1.80;1.70;;;;;;;;;;5000712;28;20500;-84
2023/05/06 04:31:59;;;;;;;2.10;2.00;;;;;;;;;;4995992;28;20458;-83
2023/05/06 04:34:36;;;;;;;2.42;2.33;;;;;;;;;;5012223;28;20125;-83
2023/05/06 04:37:05;;;;;;;2.40;2.30;;;;;;;;;;4996389;28;20069;-84
2023/05/06 04:39:56;;;;;;;3.38;3.17;;;;;;;;;;5010280;28;20052;-84
2023/05/06 04:42:24;;;;;;;3.50;3.30;;;;;;;;;;4994048;28;20045;-83
2023/05/06 04:45:02;;;;;;;2.67;2.58;;;;;;;;;;4993052;28;20436;-83
2023/05/06 04:47:33;;;;;;;2.47;2.38;;;;;;;;;;4998856;28;20053;-82
2023/05/06 04:50:03;;;;;;;2.58;2.47;;;;;;;;;;4999158;28;20104;-83
2023/05/06 04:52:31;;;;;;;2.28;2.17;;;;;;;;;;5009397;28;20082;-83
2023/05/06 04:54:59;;;;;;;2.53;2.42;;;;;;;;;;5005275;28;20041;-83
2023/05/06 04:57:26;;;;;;;3.00;2.80;;;;;;;;;;5022125;28;20042;-83
2023/05/06 04:59:55;;;;;;;3.03;2.83;;;;;;;;;;5015384;28;20111;-83
2023/05/06 05:02:24;;;;;;;3.70;3.40;;;;;;;;;;5000255;28;20127;-83
2023/05/06 05:04:52;;;;;;;3.47;3.17;;;;;;;;;;4992223;28;20431;-83
2023/05/06 05:07:21;;;;;;;3.85;3.55;;;;;;;;;;4998980;28;20579;-83
2023/05/06 05:09:48;;;;;;;3.83;3.53;;;;;;;;;;5016197;28;20046;-83
2023/05/06 05:12:16;;;;;;;3.30;3.10;;;;;;;;;;4988980;28;20046;-83
2023/05/06 05:14:47;;;;;;;3.73;3.43;;;;;;;;;;4990948;28;20445;-83
2023/05/06 05:17:14;;;;;;;4.43;4.13;;;;;;;;;;4990269;28;20044;-84
2023/05/06 05:19:44;;;;;;;3.78;3.58;;;;;;;;;;4994178;28;20042;-83
2023/05/06 05:22:13;;;;;;;3.47;3.28;;;;;;;;;;4997081;28;20405;-83
2023/05/06 05:24:40;;;;;;;4.25;3.95;;;;;;;;;;4999755;28;20084;-83
2023/05/06 05:27:11;;;;;;;4.57;4.18;;;;;;;;;;5010946;28;20587;-83
2023/05/06 05:29:39;;;;;;;4.22;3.83;;;;;;;;;;5000606;28;20052;-83
2023/05/06 05:32:08;;;;;;;4.78;4.40;;;;;;;;;;5002087;28;20037;-83
2023/05/06 05:34:35;;;;;;;5.00;4.60;;;;;;;;;;5004702;28;20050;-82
2023/05/06 05:37:04;;;;;;;3.70;3.50;;;;;;;;;;5002892;28;20287;-82
2023/05/06 05:39:33;;;;;;;3.40;3.20;;;;;;;;;;5007087;28;20041;-83
2023/05/06 05:42:03;;;;;;;3.65;3.38;;;;;;;;;;4998547;28;20052;-83
2023/05/06 05:44:32;;;;;;;3.45;3.25;;;;;;;;;;4999388;28;20041;-83
2023/05/06 05:47:00;;;;;;;3.78;3.47;;;;;;;;;;5019702;28;20072;-82
2023/05/06 05:49:29;;;;;;;3.95;3.65;;;;;;;;;;5003958;28;20054;-85
2023/05/06 05:51:59;;;;;;;3.42;3.22;;;;;;;;;;4998372;28;20450;-83
2023/05/06 05:54:35;;;;;;;3.20;3.00;;;;;;;;;;5011517;28;20057;-84
2023/05/06 05:57:10;;;;;;;4.32;3.92;;;;;;;;;;5006896;28;20365;-82
2023/05/06 06:00:23;;;;;;;3.78;3.47;;;;;;;;;;5004481;28;20046;-85
2023/05/06 06:03:12;;;;;;;3.50;3.22;;;;;;;;;;4992892;28;20050;-83
2023/05/06 06:05:51;;;;;;;4.20;3.90;;;;;;;;;;4992310;28;20046;-82
2023/05/06 06:08:26;;;;;;;4.53;4.13;;;;;;;;;;5001031;28;20058;-83
2023/05/06 06:11:03;;;;;;;3.92;3.63;;;;;;;;;;5008255;28;20057;-84
2023/05/06 06:13:44;;;;;;;4.33;4.03;;;;;;;;;;5025528;28;20053;-82
2023/05/06 06:16:18;;;;;;;8.32;7.50;;;;;;;;;;5013515;28;20100;-82
2023/05/06 06:18:52;;;;;;;5.90;5.50;;;;;;;;;;4995427;28;20052;-82
2023/05/06 06:21:26;;;;;;;4.38;4.07;;;;;;;;;;5012796;28;20300;-82
2023/05/06 06:23:59;;;;;;;6.53;4.55;;;;;;;;;;4978432;28;20567;-83
2023/05/06 06:26:31;;;;;;;5.35;4.95;;;;;;;;;;4988182;28;20344;-83
2023/05/06 06:29:04;;;;;;;5.00;4.60;;;;;;;;;;4992116;28;20046;-83
2023/05/06 06:31:37;;;;;;;5.05;4.60;;;;;;;;;;4991822;28;20049;-83
2023/05/06 06:34:08;;;;;;;4.80;4.40;;;;;;;;;;4991969;28;20117;-82
2023/05/06 06:36:36;;;;;;;6.18;5.68;;;;;;;;;;4990817;28;20069;-83
2023/05/06 06:39:03;;;;;;;6.43;5.82;;;;;;;;;;5011193;28;20133;-84
2023/05/06 06:41:31;;;;;;;8.70;6.88;;;;;;;;;;5009229;28;20516;-84
2023/05/06 06:43:59;;;;;;;7.00;6.32;;;;;;;;;;5008965;28;20185;-83
2023/05/06 06:46:28;;;;;;;5.43;5.03;;;;;;;;;;4988699;28;20045;-83
2023/05/06 06:48:56;;;;;;;7.18;5.50;;;;;;;;;;4992373;28;20065;-84
2023/05/06 06:51:23;;;;;;;6.70;6.10;;;;;;;;;;5019702;28;20111;-85
2023/05/06 06:53:52;;;;;;;6.38;5.22;;;;;;;;;;4998739;28;20149;-84
2023/05/06 06:56:20;;;;;;;5.00;4.50;;;;;;;;;;5008222;28;20511;-83
2023/05/06 06:58:48;;;;;;;6.32;5.75;;;;;;;;;;5008233;28;20042;-84
2023/05/06 07:01:18;;;;;;;5.72;5.22;;;;;;;;;;4993246;28;20041;-82
2023/05/06 07:03:50;;;;;;;7.15;6.45;;;;;;;;;;4989529;28;20496;-83
2023/05/06 07:06:26;;;;;;;8.20;7.03;;;;;;;;;;4990629;28;20044;-82
2023/05/06 07:08:56;;;;;;;7.88;6.72;;;;;;;;;;5012290;28;20050;-84
2023/05/06 07:11:24;;;;;;;6.32;5.55;;;;;;;;;;4991351;28;20053;-82
2023/05/06 07:13:54;;;;;;;6.88;6.07;;;;;;;;;;5008303;28;20045;-83
2023/05/06 07:16:21;;;;;;;7.07;6.38;;;;;;;;;;4991316;28;20054;-83
2023/05/06 07:18:49;;;;;;;8.35;7.07;;;;;;;;;;5012327;28;20750;-82
2023/05/06 07:21:17;;;;;;;10.18;8.75;;;;;;;;;;5013815;28;20092;-82
2023/05/06 07:23:45;;;;;;;11.25;9.23;;;;;;;;;;4995649;28;20082;-81
2023/05/06 07:26:15;;;;;;;9.00;7.90;;;;;;;;;;4996941;28;20045;-83
2023/05/06 07:28:50;;;;;;;8.30;6.80;;;;;;;;;;5011773;28;20061;-83
2023/05/06 07:31:21;;;;;;;10.70;8.00;;;;;;;;;;5017258;28;20054;-85
2023/05/06 07:33:48;;;;;;;7.43;6.72;;;;;;;;;;5025287;28;20064;-82
2023/05/06 07:36:18;;;;;;;7.10;6.22;;;;;;;;;;5020213;28;20048;-84
2023/05/06 07:38:53;;;;;;;7.50;6.80;;;;;;;;;;5010319;28;20037;-83
2023/05/06 07:41:20;;;;;;;7.47;6.38;;;;;;;;;;5013925;28;20044;-83
2023/05/06 07:43:48;;;;;;;8.60;6.93;;;;;;;;;;5011687;28;20076;-83
2023/05/06 07:46:15;;;;;;;6.80;6.18;;;;;;;;;;5013052;28;20496;-83
2023/05/06 07:48:46;;;;;;;8.03;7.23;;;;;;;;;;5008477;28;20061;-83
2023/05/06 07:51:13;;;;;;;8.10;5.93;;;;;;;;;;5010757;28;20285;-83
2023/05/06 07:53:41;;;;;;;6.82;6.20;;;;;;;;;;4996984;28;20054;-83
2023/05/06 07:56:08;;;;;;;7.45;6.40;;;;;;;;;;5011619;23;20047;-80
2023/05/06 07:58:37;;;;;;;7.30;6.60;;;;;;;;;;4965345;28;20070;-79
2023/05/06 08:01:06;;;;;;;6.18;5.57;;;;;;;;;;4959058;28;20498;-80
2023/05/06 08:03:37;;;;;;;7.15;6.18;;;;;;;;;;4956101;28;20050;-80
2023/05/06 08:06:07;;;;;;;6.43;5.82;;;;;;;;;;4967649;28;20070;-79
2023/05/06 08:08:37;;;;;;;7.47;6.70;;;;;;;;;;4973398;28;20051;-78
2023/05/06 08:11:05;;;;;;;7.05;6.43;;;;;;;;;;4981527;28;20050;-79
2023/05/06 08:13:33;;;;;;;6.07;5.50;;;;;;;;;;4981651;28;20057;-77
2023/05/06 08:16:02;;;;;;;5.57;5.07;;;;;;;;;;4989008;28;20070;-79
2023/05/06 08:18:31;;;;;;;5.45;4.95;;;;;;;;;;4983240;28;20381;-79
2023/05/06 08:20:59;;;;;;;8.57;6.50;;;;;;;;;;4958314;28;20389;-80
2023/05/06 08:23:27;;;;;;;6.05;5.47;;;;;;;;;;4977055;28;20254;-79
2023/05/06 08:25:54;;;;;;;5.60;5.10;;;;;;;;;;4980489;28;20790;-79
2023/05/06 08:28:22;;;;;;;6.82;6.22;;;;;;;;;;4976392;28;20054;-77
2023/05/06 08:30:51;;;;;;;6.65;5.95;;;;;;;;;;4984870;28;20430;-79
2023/05/06 08:33:19;;;;;;;6.68;5.80;;;;;;;;;;4983562;28;20060;-79
2023/05/06 08:35:46;;;;;;;6.15;5.55;;;;;;;;;;4978264;28;20058;-80
2023/05/06 08:38:14;;;;;;;7.68;6.47;;;;;;;;;;4986662;28;20122;-81
2023/05/06 08:40:44;;;;;;;6.80;6.10;;;;;;;;;;4987236;28;20073;-80
2023/05/06 08:43:13;;;;;;;7.25;6.43;;;;;;;;;;4983233;28;20042;-80
2023/05/06 08:45:41;;;;;;;6.53;5.63;;;;;;;;;;4962175;28;20664;-79
2023/05/06 08:48:09;;;;;;;6.53;5.45;;;;;;;;;;4992462;28;20047;-83
2023/05/06 08:50:39;;;;;;;5.70;5.20;;;;;;;;;;4988770;28;20046;-79
2023/05/06 08:53:07;;;;;;;6.10;5.50;;;;;;;;;;4974757;28;20325;-80
2023/05/06 08:55:35;;;;;;;7.88;6.18;;;;;;;;;;4990066;28;20058;-80
2023/05/06 08:58:05;;;;;;;6.53;5.78;;;;;;;;;;4964147;28;20043;-81
2023/05/06 09:00:33;;;;;;;6.70;5.63;;;;;;;;;;4966849;28;20576;-77
2023/05/06 09:03:00;;;;;;;6.28;5.68;;;;;;;;;;4964487;28;20414;-77
2023/05/06 09:05:28;;;;;;;6.82;6.10;;;;;;;;;;4965614;28;20166;-79
2023/05/06 09:07:55;;;;;;;6.90;5.22;;;;;;;;;;4962753;28;20133;-78
2023/05/06 09:10:23;;;;;;;6.47;5.88;;;;;;;;;;4964605;28;20555;-79
2023/05/06 09:12:53;;;;;;;6.63;5.40;;;;;;;;;;4964478;28;20058;-79
2023/05/06 09:15:24;;;;;;;5.95;5.35;;;;;;;;;;4961248;28;20097;-78
2023/05/06 09:17:52;;;;;;;6.07;5.47;;;;;;;;;;4958081;28;20501;-78
2023/05/06 09:20:20;;;;;;;6.60;6.00;;;;;;;;;;4962659;28;20556;-78
2023/05/06 09:22:48;;;;;;;6.05;5.47;;;;;;;;;;4964081;28;20394;-77
2023/05/06 09:25:15;;;;;;;6.05;5.45;;;;;;;;;;4961073;28;20066;-80
2023/05/06 09:27:43;;;;;;;6.25;5.45;;;;;;;;;;4949471;28;20135;-78
2023/05/06 09:30:11;;;;;;;5.50;5.00;;;;;;;;;;4966791;28;20043;-78
2023/05/06 09:32:39;;;;;;;6.90;6.20;;;;;;;;;;4966063;28;20320;-78
2023/05/06 09:35:09;;;;;;;6.20;5.60;;;;;;;;;;4963464;28;20053;-79
2023/05/06 09:37:38;;;;;;;6.38;5.75;;;;;;;;;;4963812;28;20035;-78
2023/05/06 09:40:06;;;;;;;6.10;5.50;;;;;;;;;;4965565;28;20046;-78
2023/05/06 09:42:34;;;;;;;5.95;5.43;;;;;;;;;;4964205;28;20512;-80
2023/05/06 09:45:03;;;;;;;4.75;4.35;;;;;;;;;;4947895;28;20050;-78
2023/05/06 09:47:35;;;;;;;5.50;5.00;;;;;;;;;;4965259;28;20436;-77
2023/05/06 09:50:03;;;;;;;7.22;6.50;;;;;;;;;;4964738;28;20493;-78
2023/05/06 09:52:31;;;;;;;5.80;5.30;;;;;;;;;;4964708;28;20050;-78
2023/05/06 09:55:00;;;;;;;5.75;5.25;;;;;;;;;;4964651;28;20054;-78
2023/05/06 09:57:29;;;;;;;6.15;5.65;;;;;;;;;;4974944;28;20066;-78
2023/05/06 09:59:57;;;;;;;4.78;4.38;;;;;;;;;;4977013;28;20420;-78
2023/05/06 10:02:25;;;;;;;5.15;4.22;;;;;;;;;;4985910;28;20041;-78
2023/05/06 10:04:56;;;;;;;4.85;3.67;;;;;;;;;;4970550;28;20053;-78
2023/05/06 10:07:27;;;;;;;3.92;3.63;;;;;;;;;;4990724;28;20526;-77
2023/05/06 10:09:58;;;;;;;5.10;4.60;;;;;;;;;;4976243;28;20055;-78
2023/05/06 10:12:25;;;;;;;4.75;4.28;;;;;;;;;;4981281;28;20262;-79
2023/05/06 10:14:53;;;;;;;2.88;2.67;;;;;;;;;;4984169;28;20089;-77
2023/05/06 10:17:24;;;;;;;2.40;2.30;;;;;;;;;;4984551;28;20057;-79
2023/05/06 10:19:56;;;;;;;3.13;2.35;;;;;;;;;;4973069;28;20130;-78
2023/05/06 10:22:25;;;;;;;;;;;;;;;;;;4977363;28;20520;-78
2023/05/06 10:24:58;;;;;;;2.90;2.70;;;;;;;;;;4982872;28;20405;-77
2023/05/06 10:27:26;;;;;;;2.17;2.08;;;;;;;;;;4979654;28;20422;-79
2023/05/06 10:29:57;;;;;;;2.35;2.25;;;;;;;;;;4977123;28;20082;-80
2023/05/06 10:32:27;;;;;;;2.70;2.60;;;;;;;;;;4979369;28;20125;-80
2023/05/06 10:34:57;;;;;;;2.58;2.40;;;;;;;;;;4973576;28;20055;-80
2023/05/06 10:37:25;;;;;;;2.97;2.78;;;;;;;;;;4950803;28;20138;-81
2023/05/06 10:39:55;;;;;;;3.08;2.88;;;;;;;;;;4974437;28;20448;-81
2023/05/06 10:42:28;;;;;;;3.25;2.95;;;;;;;;;;4982086;28;20189;-82
2023/05/06 10:44:56;;;;;;;3.97;3.67;;;;;;;;;;4984041;28;20495;-80
2023/05/06 10:47:23;;;;;;;4.50;4.10;;;;;;;;;;4982390;28;20042;-81
2023/05/06 10:50:18;;;;;;;3.90;3.70;;;;;;;;;;4982429;28;20104;-80
2023/05/06 10:52:47;;;;;;;4.00;3.70;;;;;;;;;;4983120;28;20054;-80
2023/05/06 10:55:36;;;;;;;4.30;4.00;;;;;;;;;;4979437;28;20054;-78
2023/05/06 10:58:13;;;;;;;4.40;4.10;;;;;;;;;;4958585;28;20042;-79
2023/05/06 11:00:53;;;;;;;3.55;3.25;;;;;;;;;;4966047;28;20050;-78
2023/05/06 11:03:22;;;;;;;3.55;3.25;;;;;;;;;;4984408;28;20328;-79
2023/05/06 11:05:51;;;;;;;3.05;2.75;;;;;;;;;;4992324;28;20081;-79
2023/05/06 11:08:22;;;;;;;2.85;2.70;;;;;;;;;;4998408;28;20053;-78
2023/05/06 11:10:50;;;;;;;3.30;3.00;;;;;;;;;;4985340;28;20071;-78
2023/05/06 11:13:21;;;;;;;3.83;3.47;;;;;;;;;;4989651;28;20133;-78
2023/05/06 11:15:51;;;;;;;3.60;3.30;;;;;;;;;;4990535;28;20048;-79
2023/05/06 11:18:44;;;;;;;2.87;2.67;;;;;;;;;;4978245;28;20046;-82
2023/05/06 11:21:32;;;;;;;4.15;2.70;;;;;;;;;;4984570;28;20528;-82
2023/05/06 11:23:59;;;;;;;2.20;2.10;;;;;;;;;;4980746;28;20045;-79
2023/05/06 11:26:48;;;;;;;2.03;1.92;;;;;;;;;;4990515;28;20046;-80
2023/05/06 11:31:06;;;;;;;2.05;1.95;;;;;;;;;;4987332;28;20073;-79
2023/05/06 11:34:57;;;;;;;2.30;2.20;;;;;;;;;;4929653;28;20512;-80
2023/05/06 11:41:47;;;;;;;2.95;2.50;;;;;;;;;;4987274;28;20057;-80
2023/05/06 11:44:23;;;;;;;2.95;2.75;;;;;;;;;;4982372;28;20479;-83
2023/05/06 11:46:51;;;;;;;5.78;5.28;;;;;;;;;;4977718;28;20077;-81
2023/05/06 11:49:19;;;;;;;3.65;3.38;;;;;;;;;;4982931;28;20046;-81
2023/05/06 11:51:48;;;;;;;4.40;4.10;;;;;;;;;;4986363;28;20518;-82
2023/05/06 11:54:17;;;;;;;5.97;4.70;;;;;;;;;;4981356;28;20049;-82
2023/05/06 11:56:46;;;;;;;3.10;2.90;;;;;;;;;;4985634;28;20047;-81
2023/05/06 11:59:13;;;;;;;2.00;1.90;;;;;;;;;;4985024;28;20052;-78
2023/05/06 12:01:42;;;;;;;3.17;2.85;;;;;;;;;;4979534;28;20153;-78
2023/05/06 12:04:10;;;;;;;2.78;2.58;;;;;;;;;;4954612;28;20133;-81
2023/05/06 12:06:38;;;;;;;2.20;2.10;;;;;;;;;;4989597;28;20109;-77
2023/05/06 12:09:07;;;;;;;1.80;1.70;;;;;;;;;;4987045;28;20051;-79
2023/05/06 12:11:36;;;;;;;1.00;1.00;;;;;;;;;;4985420;28;20050;-76
2023/05/06 12:14:08;;;;;;;1.88;1.77;;;;;;;;;;4983703;28;20077;-78
2023/05/06 12:16:37;;;;;;;1.33;1.33;;;;;;;;;;4990778;28;20054;-78
2023/05/06 12:19:04;;;;;;;1.48;1.38;;;;;;;;;;4983274;28;20045;-78
2023/05/06 12:21:38;;;;;;;1.77;1.67;;;;;;;;;;4985246;28;20054;-77
2023/05/06 12:24:06;;;;;;;1.20;1.10;;;;;;;;;;4983924;28;20073;-77
2023/05/06 12:26:54;;;;;;;0.73;0.73;;;;;;;;;;4985510;28;20046;-76
2023/05/06 12:29:22;;;;;;;0.68;0.68;;;;;;;;;;4981682;28;20112;-77
2023/05/06 12:31:49;;;;;;;0.82;0.82;;;;;;;;;;4956883;28;20055;-76
2023/05/06 12:34:17;;;;;;;1.20;0.80;;;;;;;;;;4978366;28;20050;-76
2023/05/06 12:36:46;;;;;;;0.75;0.75;;;;;;;;;;4984152;28;20339;-77
2023/05/06 12:39:13;;;;;;;0.73;0.73;;;;;;;;;;4983349;28;20643;-76
2023/05/06 12:41:42;;;;;;;0.90;0.90;;;;;;;;;;4987419;28;20460;-76
2023/05/06 12:44:28;;;;;;;1.48;1.38;;;;;;;;;;4989919;28;20063;-77
2023/05/06 12:46:55;;;;;;;1.10;1.10;;;;;;;;;;4980209;28;20051;-75
2023/05/06 12:49:23;;;;;;;0.80;0.80;;;;;;;;;;4983382;28;20117;-76
2023/05/06 12:52:09;;;;;;;0.77;0.77;;;;;;;;;;4982079;28;20082;-76
2023/05/06 12:54:37;;;;;;;1.00;0.75;;;;;;;;;;4956531;28;20062;-75
2023/05/06 12:57:05;;;;;;;1.10;1.10;;;;;;;;;;4982739;28;20070;-78
2023/05/06 12:59:32;;;;;;;1.50;1.40;;;;;;;;;;4989043;28;20065;-77
2023/05/06 13:02:00;;;;;;;2.90;1.15;;;;;;;;;;4993779;28;20061;-78
2023/05/06 13:04:27;;;;;;;1.35;1.25;;;;;;;;;;4977819;28;20334;-76
2023/05/06 13:06:55;;;;;;;0.75;0.75;;;;;;;;;;5003902;28;20535;-77
2023/05/06 13:09:23;;;;;;;0.90;0.90;;;;;;;;;;4991425;28;20055;-76
2023/05/06 13:11:51;;;;;;;0.73;0.73;;;;;;;;;;4986986;28;20040;-77
2023/05/06 13:14:19;;;;;;;1.48;0.85;;;;;;;;;;4980170;28;20042;-76
2023/05/06 13:16:47;;;;;;;0.90;0.90;;;;;;;;;;4983943;28;20558;-78
2023/05/06 13:19:15;;;;;;;0.73;0.73;;;;;;;;;;4985430;28;20043;-78
2023/05/06 13:21:45;;;;;;;1.13;1.02;;;;;;;;;;4991730;28;20110;-77
2023/05/06 13:24:13;;;;;;;0.70;0.70;;;;;;;;;;4989192;28;20530;-78
2023/05/06 13:26:40;;;;;;;1.25;1.00;;;;;;;;;;4988288;28;20522;-78
2023/05/06 13:29:07;;;;;;;0.93;0.70;;;;;;;;;;4991137;28;20651;-77
2023/05/06 13:31:35;;;;;;;0.60;0.60;;;;;;;;;;4995440;28;20451;-78
2023/05/06 13:34:02;;;;;;;0.60;0.60;;;;;;;;;;4990134;28;20459;-78
2023/05/06 13:36:31;;;;;;;0.70;0.70;;;;;;;;;;4985683;28;20310;-78
2023/05/06 13:38:59;;;;;;;0.80;0.80;;;;;;;;;;4987002;28;20050;-77
2023/05/06 13:41:26;;;;;;;0.70;0.70;;;;;;;;;;4985819;28;20046;-75
2023/05/06 13:43:54;;;;;;;1.58;0.70;;;;;;;;;;4986309;28;20050;-77
2023/05/06 13:46:22;;;;;;;0.90;0.90;;;;;;;;;;4986706;28;20067;-77
2023/05/06 13:48:49;;;;;;;0.70;0.70;;;;;;;;;;4986517;28;20100;-78
2023/05/06 13:51:17;;;;;;;0.88;0.70;;;;;;;;;;4985389;28;20057;-78
2023/05/06 13:53:45;;;;;;;0.73;0.73;;;;;;;;;;4989174;28;20054;-78
2023/05/06 13:56:31;;;;;;;0.93;0.90;;;;;;;;;;5023187;23;20070;-82
2023/05/06 13:59:06;;;;;;;1.95;0.70;;;;;;;;;;4928274;28;21945;-80
2023/05/06 14:01:35;;;;;;;0.50;0.50;;;;;;;;;;4948160;28;20528;-81
2023/05/06 14:04:02;;;;;;;0.90;0.90;;;;;;;;;;4950136;28;20039;-82
2023/05/06 14:06:30;;;;;;;1.00;0.80;;;;;;;;;;4965128;28;20121;-81
2023/05/06 14:08:57;;;;;;;1.08;1.08;;;;;;;;;;4949650;28;20042;-82
2023/05/06 14:11:24;;;;;;;0.50;0.50;;;;;;;;;;4968740;28;20082;-84
2023/05/06 14:13:52;;;;;;;0.95;0.95;;;;;;;;;;4961359;28;20049;-84
2023/05/06 14:16:19;;;;;;;0.70;0.70;;;;;;;;;;4933578;28;20047;-82
2023/05/06 14:18:47;;;;;;;0.80;0.80;;;;;;;;;;4969846;28;20133;-82
2023/05/06 14:21:15;;;;;;;0.60;0.60;;;;;;;;;;4968730;28;20493;-82
2023/05/06 14:23:42;;;;;;;0.68;0.68;;;;;;;;;;4966914;28;20113;-85
2023/05/06 14:26:10;;;;;;;0.68;0.68;;;;;;;;;;4947110;28;20611;-82
2023/05/06 14:28:37;;;;;;;0.60;0.60;;;;;;;;;;4966065;28;20070;-81
2023/05/06 14:31:12;;;;;;;0.47;0.47;;;;;;;;;;4951198;28;20374;-82
2023/05/06 14:33:40;;;;;;;0.50;0.50;;;;;;;;;;4964837;28;20330;-84
2023/05/06 14:36:08;;;;;;;0.80;0.80;;;;;;;;;;4967075;28;20408;-83
2023/05/06 14:38:35;;;;;;;0.95;0.70;;;;;;;;;;4967004;28;20050;-82
2023/05/06 14:41:02;;;;;;;0.52;0.52;;;;;;;;;;4964987;28;20042;-82
2023/05/06 14:43:30;;;;;;;0.70;0.70;;;;;;;;;;4950459;28;20055;-82
2023/05/06 14:45:57;;;;;;;2.40;1.00;;;;;;;;;;4965881;28;20053;-84
2023/05/06 14:48:27;;;;;;;1.15;0.80;;;;;;;;;;4967891;28;20043;-82
2023/05/06 14:50:55;;;;;;;0.80;0.80;;;;;;;;;;4945789;28;20197;-84
2023/05/06 14:53:23;;;;;;;0.60;0.60;;;;;;;;;;4968819;28;20085;-83
2023/05/06 14:55:50;;;;;;;0.55;0.55;;;;;;;;;;4968537;28;20141;-83
2023/05/06 14:58:17;;;;;;;0.40;0.40;;;;;;;;;;4973942;28;20447;-83
2023/05/06 15:00:45;;;;;;;0.90;0.50;;;;;;;;;;4954851;28;20074;-83
2023/05/06 15:03:12;;;;;;;0.45;0.45;;;;;;;;;;4975370;28;20144;-83
2023/05/06 15:05:40;;;;;;;0.60;0.60;;;;;;;;;;4955234;28;20047;-82
2023/05/06 15:08:08;;;;;;;0.50;0.50;;;;;;;;;;4931384;28;20050;-82
2023/05/06 15:10:36;;;;;;;0.70;0.70;;;;;;;;;;4946918;28;20078;-83
2023/05/06 15:13:03;;;;;;;0.50;0.50;;;;;;;;;;4935146;28;20047;-82
2023/05/06 15:15:31;;;;;;;0.70;0.70;;;;;;;;;;4948418;28;20106;-82
2023/05/06 15:17:58;;;;;;;0.30;0.30;;;;;;;;;;4966523;28;20579;-82
2023/05/06 15:20:26;;;;;;;0.52;0.50;;;;;;;;;;4966206;28;20043;-82
2023/05/06 15:22:53;;;;;;;0.40;0.40;;;;;;;;;;4949678;28;20580;-82
2023/05/06 15:25:21;;;;;;;0.73;0.60;;;;;;;;;;4969513;28;20117;-81
2023/05/06 15:28:02;;;;;;;0.80;0.80;;;;;;;;;;4970186;28;20066;-82
2023/05/06 15:30:29;;;;;;;0.40;0.40;;;;;;;;;;4952324;28;20097;-82
2023/05/06 15:32:57;;;;;;;0.30;0.30;;;;;;;;;;4951104;28;20047;-82
2023/05/06 15:35:24;;;;;;;0.55;0.55;;;;;;;;;;4971147;28;20071;-82
2023/05/06 15:37:58;;;;;;;0.90;0.90;;;;;;;;;;4950239;28;20517;-82
2023/05/06 15:40:26;;;;;;;0.85;0.60;;;;;;;;;;4966046;28;20382;-82
2023/05/06 15:42:54;;;;;;;0.70;0.70;;;;;;;;;;4968777;28;20046;-83
2023/05/06 15:45:21;;;;;;;0.57;0.57;;;;;;;;;;4965684;28;20513;-82
2023/05/06 15:47:49;;;;;;;0.40;0.40;;;;;;;;;;4969318;28;20046;-82
2023/05/06 15:50:18;;;;;;;0.45;0.45;;;;;;;;;;4948788;28;20064;-82